sensor_id;sensor_type;location;lat;lon;timestamp;temperature;humidity
64563;SHT31;50961;48.184;11.636;2022-09-28T00:00:10;8.83;93.02
64563;SHT31;50961;48.184;11.636;2022-09-28T00:02:35;8.88;93.24
64563;SHT31;50961;48.184;11.636;2022-09-28T00:05:01;8.85;92.90
64563;SHT31;50961;48.184;11.636;2022-09-28T00:07:27;8.85;93.34
64563;SHT31;50961;48.184;11.636;2022-09-28T00:09:52;8.85;92.83
64563;SHT31;50961;48.184;11.636;2022-09-28T00:12:18;8.90;92.87
64563;SHT31;50961;48.184;11.636;2022-09-28T00:14:43;8.87;93.27
64563;SHT31;50961;48.184;11.636;2022-09-28T00:17:09;8.88;92.23
64563;SHT31;50961;48.184;11.636;2022-09-28T00:19:36;8.93;92.60
64563;SHT31;50961;48.184;11.636;2022-09-28T00:22:03;8.88;92.97
64563;SHT31;50961;48.184;11.636;2022-09-28T00:24:28;8.87;92.52
64563;SHT31;50961;48.184;11.636;2022-09-28T00:26:56;8.93;92.13
64563;SHT31;50961;48.184;11.636;2022-09-28T00:29:26;8.91;92.40
64563;SHT31;50961;48.184;11.636;2022-09-28T00:31:57;9.00;92.00
64563;SHT31;50961;48.184;11.636;2022-09-28T00:34:25;9.01;91.85
64563;SHT31;50961;48.184;11.636;2022-09-28T00:36:51;8.96;91.73
64563;SHT31;50961;48.184;11.636;2022-09-28T00:39:17;8.97;91.44
64563;SHT31;50961;48.184;11.636;2022-09-28T00:41:44;8.96;91.49
64563;SHT31;50961;48.184;11.636;2022-09-28T00:46:52;8.94;91.30
64563;SHT31;50961;48.184;11.636;2022-09-28T00:49:24;8.96;91.07
64563;SHT31;50961;48.184;11.636;2022-09-28T00:51:51;8.88;91.52
64563;SHT31;50961;48.184;11.636;2022-09-28T00:54:17;8.88;91.68
64563;SHT31;50961;48.184;11.636;2022-09-28T00:56:44;8.94;91.45
64563;SHT31;50961;48.184;11.636;2022-09-28T00:59:10;8.91;91.32
64563;SHT31;50961;48.184;11.636;2022-09-28T01:01:36;8.91;91.41
64563;SHT31;50961;48.184;11.636;2022-09-28T01:04:02;8.90;91.31
64563;SHT31;50961;48.184;11.636;2022-09-28T01:06:31;8.94;91.18
64563;SHT31;50961;48.184;11.636;2022-09-28T01:09:00;9.00;90.86
64563;SHT31;50961;48.184;11.636;2022-09-28T01:11:28;8.96;89.69
64563;SHT31;50961;48.184;11.636;2022-09-28T01:13:56;8.99;89.33
64563;SHT31;50961;48.184;11.636;2022-09-28T01:19:43;8.91;89.77
64563;SHT31;50961;48.184;11.636;2022-09-28T01:25:48;8.84;89.76
64563;SHT31;50961;48.184;11.636;2022-09-28T01:28:17;8.88;89.47
64563;SHT31;50961;48.184;11.636;2022-09-28T01:30:54;8.93;89.28
64563;SHT31;50961;48.184;11.636;2022-09-28T01:33:23;8.96;89.60
64563;SHT31;50961;48.184;11.636;2022-09-28T01:36:08;8.91;88.71
64563;SHT31;50961;48.184;11.636;2022-09-28T01:39:02;8.94;88.99
64563;SHT31;50961;48.184;11.636;2022-09-28T01:41:29;8.97;88.57
64563;SHT31;50961;48.184;11.636;2022-09-28T01:43:59;8.93;88.98
64563;SHT31;50961;48.184;11.636;2022-09-28T01:46:38;8.94;89.07
64563;SHT31;50961;48.184;11.636;2022-09-28T01:49:19;8.90;88.61
64563;SHT31;50961;48.184;11.636;2022-09-28T01:51:51;8.90;88.71
64563;SHT31;50961;48.184;11.636;2022-09-28T01:54:31;8.87;88.87
64563;SHT31;50961;48.184;11.636;2022-09-28T01:57:14;8.96;88.46
64563;SHT31;50961;48.184;11.636;2022-09-28T02:00:04;9.01;88.05
64563;SHT31;50961;48.184;11.636;2022-09-28T02:02:35;8.91;88.76
64563;SHT31;50961;48.184;11.636;2022-09-28T02:05:33;8.91;88.18
64563;SHT31;50961;48.184;11.636;2022-09-28T02:08:22;8.90;88.44
64563;SHT31;50961;48.184;11.636;2022-09-28T02:11:02;8.97;88.70
64563;SHT31;50961;48.184;11.636;2022-09-28T02:13:32;9.01;88.05
64563;SHT31;50961;48.184;11.636;2022-09-28T02:18:48;9.00;87.61
64563;SHT31;50961;48.184;11.636;2022-09-28T02:21:21;8.91;88.48
64563;SHT31;50961;48.184;11.636;2022-09-28T02:23:55;9.03;87.84
64563;SHT31;50961;48.184;11.636;2022-09-28T02:26:26;9.03;87.68
64563;SHT31;50961;48.184;11.636;2022-09-28T02:28:54;9.07;87.58
64563;SHT31;50961;48.184;11.636;2022-09-28T02:31:19;9.05;87.82
64563;SHT31;50961;48.184;11.636;2022-09-28T02:33:45;9.05;87.29
64563;SHT31;50961;48.184;11.636;2022-09-28T02:36:12;9.03;87.80
64563;SHT31;50961;48.184;11.636;2022-09-28T02:38:37;9.03;87.59
64563;SHT31;50961;48.184;11.636;2022-09-28T02:47:03;8.99;87.31
64563;SHT31;50961;48.184;11.636;2022-09-28T02:49:37;9.07;86.80
64563;SHT31;50961;48.184;11.636;2022-09-28T02:52:25;9.08;86.24
64563;SHT31;50961;48.184;11.636;2022-09-28T02:55:09;9.10;86.55
64563;SHT31;50961;48.184;11.636;2022-09-28T02:57:51;9.04;86.03
64563;SHT31;50961;48.184;11.636;2022-09-28T03:00:20;9.08;86.21
64563;SHT31;50961;48.184;11.636;2022-09-28T03:08:28;9.10;85.33
64563;SHT31;50961;48.184;11.636;2022-09-28T03:10:59;9.05;85.91
64563;SHT31;50961;48.184;11.636;2022-09-28T03:13:27;9.03;86.74
64563;SHT31;50961;48.184;11.636;2022-09-28T03:16:14;8.99;87.13
64563;SHT31;50961;48.184;11.636;2022-09-28T03:18:40;8.97;86.54
64563;SHT31;50961;48.184;11.636;2022-09-28T03:21:06;8.97;87.26
64563;SHT31;50961;48.184;11.636;2022-09-28T03:23:32;8.90;87.63
64563;SHT31;50961;48.184;11.636;2022-09-28T03:25:57;8.84;87.64
64563;SHT31;50961;48.184;11.636;2022-09-28T03:28:23;8.90;87.58
64563;SHT31;50961;48.184;11.636;2022-09-28T03:30:49;8.97;87.37
64563;SHT31;50961;48.184;11.636;2022-09-28T03:33:14;8.88;87.56
64563;SHT31;50961;48.184;11.636;2022-09-28T03:35:40;8.91;87.30
64563;SHT31;50961;48.184;11.636;2022-09-28T03:38:05;8.87;86.79
64563;SHT31;50961;48.184;11.636;2022-09-28T03:40:30;8.94;86.07
64563;SHT31;50961;48.184;11.636;2022-09-28T03:42:56;9.00;86.01
64563;SHT31;50961;48.184;11.636;2022-09-28T03:45:21;9.01;86.02
64563;SHT31;50961;48.184;11.636;2022-09-28T03:47:46;9.03;85.00
64563;SHT31;50961;48.184;11.636;2022-09-28T03:50:13;9.01;85.52
64563;SHT31;50961;48.184;11.636;2022-09-28T03:52:38;9.01;85.84
64563;SHT31;50961;48.184;11.636;2022-09-28T03:55:04;8.99;85.56
64563;SHT31;50961;48.184;11.636;2022-09-28T03:57:29;9.00;85.94
64563;SHT31;50961;48.184;11.636;2022-09-28T03:59:55;8.97;85.57
64563;SHT31;50961;48.184;11.636;2022-09-28T04:02:20;9.01;85.40
64563;SHT31;50961;48.184;11.636;2022-09-28T04:04:45;8.99;85.41
64563;SHT31;50961;48.184;11.636;2022-09-28T04:07:11;8.90;85.79
64563;SHT31;50961;48.184;11.636;2022-09-28T04:09:36;8.85;85.63
64563;SHT31;50961;48.184;11.636;2022-09-28T04:12:01;8.97;85.42
64563;SHT31;50961;48.184;11.636;2022-09-28T04:14:27;8.94;85.02
64563;SHT31;50961;48.184;11.636;2022-09-28T04:16:52;9.07;84.56
64563;SHT31;50961;48.184;11.636;2022-09-28T04:19:19;9.07;84.87
64563;SHT31;50961;48.184;11.636;2022-09-28T04:21:46;8.96;85.16
64563;SHT31;50961;48.184;11.636;2022-09-28T04:24:12;8.93;85.45
64563;SHT31;50961;48.184;11.636;2022-09-28T04:26:37;8.99;85.44
64563;SHT31;50961;48.184;11.636;2022-09-28T04:29:03;8.85;85.76
64563;SHT31;50961;48.184;11.636;2022-09-28T04:31:51;8.96;85.56
64563;SHT31;50961;48.184;11.636;2022-09-28T04:34:19;8.99;85.40
64563;SHT31;50961;48.184;11.636;2022-09-28T04:36:45;8.99;85.13
64563;SHT31;50961;48.184;11.636;2022-09-28T04:39:11;9.00;85.01
64563;SHT31;50961;48.184;11.636;2022-09-28T04:41:37;8.96;85.07
64563;SHT31;50961;48.184;11.636;2022-09-28T04:44:03;8.96;85.60
64563;SHT31;50961;48.184;11.636;2022-09-28T04:46:28;8.85;85.29
64563;SHT31;50961;48.184;11.636;2022-09-28T04:48:53;8.87;85.58
64563;SHT31;50961;48.184;11.636;2022-09-28T04:51:19;8.77;86.68
64563;SHT31;50961;48.184;11.636;2022-09-28T04:53:44;8.74;86.70
64563;SHT31;50961;48.184;11.636;2022-09-28T04:56:11;8.67;87.22
64563;SHT31;50961;48.184;11.636;2022-09-28T04:58:37;8.69;87.52
64563;SHT31;50961;48.184;11.636;2022-09-28T05:01:05;8.54;87.54
64563;SHT31;50961;48.184;11.636;2022-09-28T05:03:32;8.59;87.52
64563;SHT31;50961;48.184;11.636;2022-09-28T05:05:58;8.63;87.59
64563;SHT31;50961;48.184;11.636;2022-09-28T05:08:24;8.60;87.31
64563;SHT31;50961;48.184;11.636;2022-09-28T05:10:56;8.62;88.09
64563;SHT31;50961;48.184;11.636;2022-09-28T05:13:22;8.52;88.62
64563;SHT31;50961;48.184;11.636;2022-09-28T17:33:39;8.52;94.30
64563;SHT31;50961;48.184;11.636;2022-09-28T17:36:05;8.56;94.19
64563;SHT31;50961;48.184;11.636;2022-09-28T17:38:31;8.62;94.44
64563;SHT31;50961;48.184;11.636;2022-09-28T17:40:58;8.60;94.04
64563;SHT31;50961;48.184;11.636;2022-09-28T17:43:23;8.69;93.62
64563;SHT31;50961;48.184;11.636;2022-09-28T17:45:49;8.70;92.68
64563;SHT31;50961;48.184;11.636;2022-09-28T17:48:18;8.77;93.19
64563;SHT31;50961;48.184;11.636;2022-09-28T17:50:47;8.76;92.68
64563;SHT31;50961;48.184;11.636;2022-09-28T17:53:13;8.79;92.57
64563;SHT31;50961;48.184;11.636;2022-09-28T17:55:39;8.80;92.72
64563;SHT31;50961;48.184;11.636;2022-09-28T17:58:14;8.87;92.55
64563;SHT31;50961;48.184;11.636;2022-09-28T18:00:41;8.88;92.35
64563;SHT31;50961;48.184;11.636;2022-09-28T18:03:23;8.85;92.49
64563;SHT31;50961;48.184;11.636;2022-09-28T18:05:57;8.85;93.01
64563;SHT31;50961;48.184;11.636;2022-09-28T18:08:22;8.84;92.58
64563;SHT31;50961;48.184;11.636;2022-09-28T18:10:48;8.93;90.97
